Terminal Aerodrome Forecast
Issued by NWS

Home | Current Version | Previous Version | Graphics & Text | Print | Product List | Glossary Off
Versions: 1 2 3 4 5 6 7 8 9 10 11 12 13 14 15 16 17 18

000
FTUS43 KDDC 190520
TAFHYS
TAF
KHYS 190520Z 1906/2006 18010KT P6SM FEW250 WS020/20040KT
     FM191100 16012KT P6SM FEW250
     FM191900 19023G33KT P6SM SKC
     FM200200 18015KT P6SM SKC WS020/21050KT=

USA.gov is the U.S. government's official web portal to all federal, state and local government web resources and services.